sensor_id;sensor_type;location;lat;lon;timestamp;P1;P2;P0
70255;PMS5003;57669;52.624;-1.688;2022-10-23T00:01:36;9;9;
70255;PMS5003;57669;52.624;-1.688;2022-10-23T00:04:02;10;9;
70255;PMS5003;57669;52.624;-1.688;2022-10-23T00:06:28;8;8;
70255;PMS5003;57669;52.624;-1.688;2022-10-23T00:08:52;11;10;
70255;PMS5003;57669;52.624;-1.688;2022-10-23T00:11:19;8;8;
70255;PMS5003;57669;52.624;-1.688;2022-10-23T00:13:44;11;11;
70255;PMS5003;57669;52.624;-1.688;2022-10-23T00:16:10;9;9;
70255;PMS5003;57669;52.624;-1.688;2022-10-23T00:18:35;6;6;
70255;PMS5003;57669;52.624;-1.688;2022-10-23T00:21:00;10;10;
70255;PMS5003;57669;52.624;-1.688;2022-10-23T00:23:26;9;9;
70255;PMS5003;57669;52.624;-1.688;2022-10-23T00:25:52;11;11;
70255;PMS5003;57669;52.624;-1.688;2022-10-23T00:28:17;13;10;
70255;PMS5003;57669;52.624;-1.688;2022-10-23T00:30:43;10;9;
70255;PMS5003;57669;52.624;-1.688;2022-10-23T00:33:09;10;9;
70255;PMS5003;57669;52.624;-1.688;2022-10-23T00:35:37;11;8;
70255;PMS5003;57669;52.624;-1.688;2022-10-23T00:37:59;12;12;
70255;PMS5003;57669;52.624;-1.688;2022-10-23T00:40:25;10;10;
70255;PMS5003;57669;52.624;-1.688;2022-10-23T00:42:51;11;10;
70255;PMS5003;57669;52.624;-1.688;2022-10-23T00:45:19;12;12;
70255;PMS5003;57669;52.624;-1.688;2022-10-23T00:47:42;13;10;
70255;PMS5003;57669;52.624;-1.688;2022-10-23T00:50:08;13;13;
70255;PMS5003;57669;52.624;-1.688;2022-10-23T00:52:33;9;9;
70255;PMS5003;57669;52.624;-1.688;2022-10-23T00:54:59;15;14;
70255;PMS5003;57669;52.624;-1.688;2022-10-23T00:57:24;10;10;
70255;PMS5003;57669;52.624;-1.688;2022-10-23T00:59:50;14;13;
70255;PMS5003;57669;52.624;-1.688;2022-10-23T01:02:16;12;11;
70255;PMS5003;57669;52.624;-1.688;2022-10-23T01:04:41;10;8;
70255;PMS5003;57669;52.624;-1.688;2022-10-23T01:07:08;15;15;
70255;PMS5003;57669;52.624;-1.688;2022-10-23T01:09:32;14;14;
70255;PMS5003;57669;52.624;-1.688;2022-10-23T01:11:59;15;13;
70255;PMS5003;57669;52.624;-1.688;2022-10-23T01:14:25;12;12;
70255;PMS5003;57669;52.624;-1.688;2022-10-23T01:16:50;13;13;
70255;PMS5003;57669;52.624;-1.688;2022-10-23T01:19:16;14;10;
70255;PMS5003;57669;52.624;-1.688;2022-10-23T01:21:42;12;10;
70255;PMS5003;57669;52.624;-1.688;2022-10-23T01:24:06;13;13;
70255;PMS5003;57669;52.624;-1.688;2022-10-23T01:26:33;17;13;
70255;PMS5003;57669;52.624;-1.688;2022-10-23T01:28:56;12;12;
70255;PMS5003;57669;52.624;-1.688;2022-10-23T01:31:22;20;20;
70255;PMS5003;57669;52.624;-1.688;2022-10-23T01:33:47;15;15;
70255;PMS5003;57669;52.624;-1.688;2022-10-23T01:36:13;25;20;
70255;PMS5003;57669;52.624;-1.688;2022-10-23T01:38:39;14;13;
70255;PMS5003;57669;52.624;-1.688;2022-10-23T01:41:05;14;13;
70255;PMS5003;57669;52.624;-1.688;2022-10-23T01:43:30;13;13;
70255;PMS5003;57669;52.624;-1.688;2022-10-23T01:45:55;13;12;
70255;PMS5003;57669;52.624;-1.688;2022-10-23T01:48:21;20;18;
70255;PMS5003;57669;52.624;-1.688;2022-10-23T01:50:46;16;16;
70255;PMS5003;57669;52.624;-1.688;2022-10-23T01:53:11;15;14;
70255;PMS5003;57669;52.624;-1.688;2022-10-23T01:55:36;12;12;
70255;PMS5003;57669;52.624;-1.688;2022-10-23T01:58:02;17;17;
70255;PMS5003;57669;52.624;-1.688;2022-10-23T02:00:27;15;15;
70255;PMS5003;57669;52.624;-1.688;2022-10-23T02:02:52;14;14;
70255;PMS5003;57669;52.624;-1.688;2022-10-23T02:05:19;16;15;
70255;PMS5003;57669;52.624;-1.688;2022-10-23T02:07:44;20;18;
70255;PMS5003;57669;52.624;-1.688;2022-10-23T02:10:09;20;19;
70255;PMS5003;57669;52.624;-1.688;2022-10-23T02:12:37;17;17;
70255;PMS5003;57669;52.624;-1.688;2022-10-23T02:15:01;17;16;
70255;PMS5003;57669;52.624;-1.688;2022-10-23T02:17:25;16;15;
70255;PMS5003;57669;52.624;-1.688;2022-10-23T02:19:52;17;16;
70255;PMS5003;57669;52.624;-1.688;2022-10-23T02:22:17;13;11;
70255;PMS5003;57669;52.624;-1.688;2022-10-23T02:24:42;11;11;
70255;PMS5003;57669;52.624;-1.688;2022-10-23T02:27:07;18;16;
70255;PMS5003;57669;52.624;-1.688;2022-10-23T02:29:33;17;15;
70255;PMS5003;57669;52.624;-1.688;2022-10-23T02:31:57;14;13;
70255;PMS5003;57669;52.624;-1.688;2022-10-23T02:34:22;16;14;
70255;PMS5003;57669;52.624;-1.688;2022-10-23T02:36:48;10;10;
70255;PMS5003;57669;52.624;-1.688;2022-10-23T02:39:13;16;13;
70255;PMS5003;57669;52.624;-1.688;2022-10-23T02:44:08;15;13;
70255;PMS5003;57669;52.624;-1.688;2022-10-23T02:46:33;14;12;
70255;PMS5003;57669;52.624;-1.688;2022-10-23T02:48:57;17;16;
70255;PMS5003;57669;52.624;-1.688;2022-10-23T02:51:24;14;13;
70255;PMS5003;57669;52.624;-1.688;2022-10-23T02:53:48;16;14;
70255;PMS5003;57669;52.624;-1.688;2022-10-23T02:56:14;11;11;
70255;PMS5003;57669;52.624;-1.688;2022-10-23T02:58:40;13;12;
70255;PMS5003;57669;52.624;-1.688;2022-10-23T03:01:04;15;14;
70255;PMS5003;57669;52.624;-1.688;2022-10-23T03:03:30;13;13;
70255;PMS5003;57669;52.624;-1.688;2022-10-23T03:05:54;14;13;
70255;PMS5003;57669;52.624;-1.688;2022-10-23T03:08:20;13;11;
70255;PMS5003;57669;52.624;-1.688;2022-10-23T03:10:45;15;13;
70255;PMS5003;57669;52.624;-1.688;2022-10-23T03:13:10;12;12;
70255;PMS5003;57669;52.624;-1.688;2022-10-23T03:15:35;16;16;
70255;PMS5003;57669;52.624;-1.688;2022-10-23T03:18:00;15;15;
70255;PMS5003;57669;52.624;-1.688;2022-10-23T03:20:25;16;14;
70255;PMS5003;57669;52.624;-1.688;2022-10-23T03:22:50;15;14;
70255;PMS5003;57669;52.624;-1.688;2022-10-23T03:25:16;16;15;
70255;PMS5003;57669;52.624;-1.688;2022-10-23T03:27:41;14;13;
70255;PMS5003;57669;52.624;-1.688;2022-10-23T03:30:07;15;15;
70255;PMS5003;57669;52.624;-1.688;2022-10-23T03:32:32;19;18;
70255;PMS5003;57669;52.624;-1.688;2022-10-23T03:34:57;17;16;
70255;PMS5003;57669;52.624;-1.688;2022-10-23T03:37:23;16;14;
70255;PMS5003;57669;52.624;-1.688;2022-10-23T03:39:48;17;16;
70255;PMS5003;57669;52.624;-1.688;2022-10-23T03:42:14;18;16;
70255;PMS5003;57669;52.624;-1.688;2022-10-23T03:44:39;17;15;
70255;PMS5003;57669;52.624;-1.688;2022-10-23T03:47:04;19;17;
70255;PMS5003;57669;52.624;-1.688;2022-10-23T03:49:30;17;17;
70255;PMS5003;57669;52.624;-1.688;2022-10-23T03:51:56;17;17;
70255;PMS5003;57669;52.624;-1.688;2022-10-23T03:54:22;16;15;
70255;PMS5003;57669;52.624;-1.688;2022-10-23T03:56:47;22;22;
70255;PMS5003;57669;52.624;-1.688;2022-10-23T03:59:12;18;17;
70255;PMS5003;57669;52.624;-1.688;2022-10-23T04:01:37;16;16;
70255;PMS5003;57669;52.624;-1.688;2022-10-23T04:04:03;17;17;
70255;PMS5003;57669;52.624;-1.688;2022-10-23T04:06:28;19;18;
70255;PMS5003;57669;52.624;-1.688;2022-10-23T04:08:53;18;16;
70255;PMS5003;57669;52.624;-1.688;2022-10-23T04:11:18;21;18;
70255;PMS5003;57669;52.624;-1.688;2022-10-23T04:13:43;19;18;
70255;PMS5003;57669;52.624;-1.688;2022-10-23T04:16:08;19;18;
70255;PMS5003;57669;52.624;-1.688;2022-10-23T04:18:34;19;15;
70255;PMS5003;57669;52.624;-1.688;2022-10-23T04:20:59;20;19;
70255;PMS5003;57669;52.624;-1.688;2022-10-23T04:23:24;22;21;
70255;PMS5003;57669;52.624;-1.688;2022-10-23T04:25:49;17;15;
70255;PMS5003;57669;52.624;-1.688;2022-10-23T04:28:14;18;18;
70255;PMS5003;57669;52.624;-1.688;2022-10-23T04:30:39;20;17;
70255;PMS5003;57669;52.624;-1.688;2022-10-23T04:33:05;21;20;
70255;PMS5003;57669;52.624;-1.688;2022-10-23T04:35:30;19;18;
70255;PMS5003;57669;52.624;-1.688;2022-10-23T04:37:56;17;16;
70255;PMS5003;57669;52.624;-1.688;2022-10-23T04:40:22;20;18;
70255;PMS5003;57669;52.624;-1.688;2022-10-23T04:42:47;15;14;
70255;PMS5003;57669;52.624;-1.688;2022-10-23T04:45:12;20;20;
70255;PMS5003;57669;52.624;-1.688;2022-10-23T04:47:37;17;14;
70255;PMS5003;57669;52.624;-1.688;2022-10-23T04:50:03;20;17;
70255;PMS5003;57669;52.624;-1.688;2022-10-23T04:52:28;20;20;
70255;PMS5003;57669;52.624;-1.688;2022-10-23T04:54:53;19;18;
70255;PMS5003;57669;52.624;-1.688;2022-10-23T04:57:18;19;19;
70255;PMS5003;57669;52.624;-1.688;2022-10-23T04:59:44;22;18;
70255;PMS5003;57669;52.624;-1.688;2022-10-23T05:02:09;21;20;
70255;PMS5003;57669;52.624;-1.688;2022-10-23T05:04:34;20;19;
70255;PMS5003;57669;52.624;-1.688;2022-10-23T05:07:00;21;17;
70255;PMS5003;57669;52.624;-1.688;2022-10-23T05:09:25;23;22;
70255;PMS5003;57669;52.624;-1.688;2022-10-23T05:11:50;27;27;
70255;PMS5003;57669;52.624;-1.688;2022-10-23T05:14:16;22;20;
70255;PMS5003;57669;52.624;-1.688;2022-10-23T05:16:42;25;23;
70255;PMS5003;57669;52.624;-1.688;2022-10-23T05:19:08;21;20;
70255;PMS5003;57669;52.624;-1.688;2022-10-23T05:21:33;22;21;
70255;PMS5003;57669;52.624;-1.688;2022-10-23T05:23:59;19;17;
70255;PMS5003;57669;52.624;-1.688;2022-10-23T05:26:24;23;22;
70255;PMS5003;57669;52.624;-1.688;2022-10-23T05:28:49;22;21;
70255;PMS5003;57669;52.624;-1.688;2022-10-23T05:31:14;20;20;
70255;PMS5003;57669;52.624;-1.688;2022-10-23T05:33:39;15;15;
70255;PMS5003;57669;52.624;-1.688;2022-10-23T05:36:05;19;17;
70255;PMS5003;57669;52.624;-1.688;2022-10-23T05:38:30;19;17;
70255;PMS5003;57669;52.624;-1.688;2022-10-23T05:40:55;15;15;
70255;PMS5003;57669;52.624;-1.688;2022-10-23T05:43:20;22;21;
70255;PMS5003;57669;52.624;-1.688;2022-10-23T05:45:46;18;18;
70255;PMS5003;57669;52.624;-1.688;2022-10-23T05:48:13;21;20;
70255;PMS5003;57669;52.624;-1.688;2022-10-23T05:50:37;16;15;
70255;PMS5003;57669;52.624;-1.688;2022-10-23T05:53:02;16;15;
70255;PMS5003;57669;52.624;-1.688;2022-10-23T05:55:28;14;14;
70255;PMS5003;57669;52.624;-1.688;2022-10-23T05:57:53;19;19;
70255;PMS5003;57669;52.624;-1.688;2022-10-23T06:00:18;19;17;
70255;PMS5003;57669;52.624;-1.688;2022-10-23T06:02:44;16;15;
70255;PMS5003;57669;52.624;-1.688;2022-10-23T06:05:09;19;18;
70255;PMS5003;57669;52.624;-1.688;2022-10-23T06:07:34;16;16;
70255;PMS5003;57669;52.624;-1.688;2022-10-23T06:09:59;23;21;
70255;PMS5003;57669;52.624;-1.688;2022-10-23T06:12:24;21;19;
70255;PMS5003;57669;52.624;-1.688;2022-10-23T06:14:50;15;14;
70255;PMS5003;57669;52.624;-1.688;2022-10-23T06:17:15;18;17;
70255;PMS5003;57669;52.624;-1.688;2022-10-23T06:19:42;20;17;
70255;PMS5003;57669;52.624;-1.688;2022-10-23T06:22:06;18;17;
70255;PMS5003;57669;52.624;-1.688;2022-10-23T06:24:32;14;13;
70255;PMS5003;57669;52.624;-1.688;2022-10-23T06:26:57;19;17;
70255;PMS5003;57669;52.624;-1.688;2022-10-23T06:29:23;16;16;
70255;PMS5003;57669;52.624;-1.688;2022-10-23T06:31:48;16;15;
70255;PMS5003;57669;52.624;-1.688;2022-10-23T06:34:14;19;18;
70255;PMS5003;57669;52.624;-1.688;2022-10-23T06:36:39;22;20;
70255;PMS5003;57669;52.624;-1.688;2022-10-23T06:39:04;17;16;
70255;PMS5003;57669;52.624;-1.688;2022-10-23T06:41:30;13;13;
70255;PMS5003;57669;52.624;-1.688;2022-10-23T06:43:56;17;15;
70255;PMS5003;57669;52.624;-1.688;2022-10-23T06:46:21;13;12;
70255;PMS5003;57669;52.624;-1.688;2022-10-23T06:48:47;20;17;
70255;PMS5003;57669;52.624;-1.688;2022-10-23T06:51:13;18;16;
70255;PMS5003;57669;52.624;-1.688;2022-10-23T06:53:38;17;15;
70255;PMS5003;57669;52.624;-1.688;2022-10-23T06:56:04;17;16;
70255;PMS5003;57669;52.624;-1.688;2022-10-23T06:58:29;17;15;
70255;PMS5003;57669;52.624;-1.688;2022-10-23T07:00:54;18;15;
70255;PMS5003;57669;52.624;-1.688;2022-10-23T07:03:19;13;13;
70255;PMS5003;57669;52.624;-1.688;2022-10-23T07:05:45;11;11;
70255;PMS5003;57669;52.624;-1.688;2022-10-23T07:08:10;14;14;
70255;PMS5003;57669;52.624;-1.688;2022-10-23T07:10:36;13;13;
70255;PMS5003;57669;52.624;-1.688;2022-10-23T07:13:01;15;15;
70255;PMS5003;57669;52.624;-1.688;2022-10-23T07:15:27;14;13;
70255;PMS5003;57669;52.624;-1.688;2022-10-23T07:17:53;13;13;
70255;PMS5003;57669;52.624;-1.688;2022-10-23T07:20:18;11;11;
70255;PMS5003;57669;52.624;-1.688;2022-10-23T07:22:49;13;12;
70255;PMS5003;57669;52.624;-1.688;2022-10-23T07:25:09;16;15;
70255;PMS5003;57669;52.624;-1.688;2022-10-23T07:30:00;12;12;
70255;PMS5003;57669;52.624;-1.688;2022-10-23T07:32:26;12;10;
70255;PMS5003;57669;52.624;-1.688;2022-10-23T07:34:52;12;12;
70255;PMS5003;57669;52.624;-1.688;2022-10-23T07:37:17;11;11;
70255;PMS5003;57669;52.624;-1.688;2022-10-23T07:39:43;12;12;
70255;PMS5003;57669;52.624;-1.688;2022-10-23T07:42:09;11;10;
70255;PMS5003;57669;52.624;-1.688;2022-10-23T07:44:34;10;9;
70255;PMS5003;57669;52.624;-1.688;2022-10-23T07:47:00;10;9;
70255;PMS5003;57669;52.624;-1.688;2022-10-23T07:49:25;12;12;
70255;PMS5003;57669;52.624;-1.688;2022-10-23T07:51:51;9;9;
70255;PMS5003;57669;52.624;-1.688;2022-10-23T07:54:17;9;9;
70255;PMS5003;57669;52.624;-1.688;2022-10-23T07:56:42;10;9;
70255;PMS5003;57669;52.624;-1.688;2022-10-23T07:59:09;9;9;
70255;PMS5003;57669;52.624;-1.688;2022-10-23T08:01:35;8;7;
70255;PMS5003;57669;52.624;-1.688;2022-10-23T08:03:59;10;9;
70255;PMS5003;57669;52.624;-1.688;2022-10-23T08:06:25;12;11;
70255;PMS5003;57669;52.624;-1.688;2022-10-23T08:08:50;9;9;
70255;PMS5003;57669;52.624;-1.688;2022-10-23T08:11:17;7;7;
70255;PMS5003;57669;52.624;-1.688;2022-10-23T08:13:42;10;9;
70255;PMS5003;57669;52.624;-1.688;2022-10-23T08:16:07;9;9;
70255;PMS5003;57669;52.624;-1.688;2022-10-23T08:18:33;6;6;
70255;PMS5003;57669;52.624;-1.688;2022-10-23T08:20:59;10;10;
70255;PMS5003;57669;52.624;-1.688;2022-10-23T08:23:24;6;6;
70255;PMS5003;57669;52.624;-1.688;2022-10-23T08:25:52;10;8;
70255;PMS5003;57669;52.624;-1.688;2022-10-23T08:28:15;7;6;
70255;PMS5003;57669;52.624;-1.688;2022-10-23T08:30:41;7;7;
70255;PMS5003;57669;52.624;-1.688;2022-10-23T08:33:06;7;7;
70255;PMS5003;57669;52.624;-1.688;2022-10-23T08:35:34;8;8;
70255;PMS5003;57669;52.624;-1.688;2022-10-23T08:37:58;7;7;
70255;PMS5003;57669;52.624;-1.688;2022-10-23T08:40:24;9;7;
70255;PMS5003;57669;52.624;-1.688;2022-10-23T08:42:51;8;7;
70255;PMS5003;57669;52.624;-1.688;2022-10-23T08:45:20;6;5;
70255;PMS5003;57669;52.624;-1.688;2022-10-23T08:47:41;8;8;
70255;PMS5003;57669;52.624;-1.688;2022-10-23T08:50:09;8;8;
70255;PMS5003;57669;52.624;-1.688;2022-10-23T08:52:33;6;6;
70255;PMS5003;57669;52.624;-1.688;2022-10-23T08:55:00;7;7;
70255;PMS5003;57669;52.624;-1.688;2022-10-23T08:57:23;5;5;
70255;PMS5003;57669;52.624;-1.688;2022-10-23T08:59:51;7;7;
70255;PMS5003;57669;52.624;-1.688;2022-10-23T09:02:15;6;6;
70255;PMS5003;57669;52.624;-1.688;2022-10-23T09:04:40;5;5;
70255;PMS5003;57669;52.624;-1.688;2022-10-23T09:07:07;5;4;
70255;PMS5003;57669;52.624;-1.688;2022-10-23T09:11:59;3;3;
70255;PMS5003;57669;52.624;-1.688;2022-10-23T09:14:26;4;4;
70255;PMS5003;57669;52.624;-1.688;2022-10-23T09:16:52;5;4;
70255;PMS5003;57669;52.624;-1.688;2022-10-23T09:19:16;5;5;
70255;PMS5003;57669;52.624;-1.688;2022-10-23T09:21:40;5;4;
70255;PMS5003;57669;52.624;-1.688;2022-10-23T09:24:10;4;3;
70255;PMS5003;57669;52.624;-1.688;2022-10-23T09:26:31;2;2;
70255;PMS5003;57669;52.624;-1.688;2022-10-23T09:29:01;4;4;
70255;PMS5003;57669;52.624;-1.688;2022-10-23T09:31:23;3;3;
70255;PMS5003;57669;52.624;-1.688;2022-10-23T09:33:53;3;3;
70255;PMS5003;57669;52.624;-1.688;2022-10-23T09:36:18;2;2;
70255;PMS5003;57669;52.624;-1.688;2022-10-23T09:38:46;3;3;
70255;PMS5003;57669;52.624;-1.688;2022-10-23T09:41:08;2;2;
70255;PMS5003;57669;52.624;-1.688;2022-10-23T09:43:31;2;2;
70255;PMS5003;57669;52.624;-1.688;2022-10-23T09:45:57;3;3;
70255;PMS5003;57669;52.624;-1.688;2022-10-23T09:48:22;4;4;
70255;PMS5003;57669;52.624;-1.688;2022-10-23T09:50:49;2;1;
70255;PMS5003;57669;52.624;-1.688;2022-10-23T09:53:14;3;2;
70255;PMS5003;57669;52.624;-1.688;2022-10-23T09:55:39;4;3;
70255;PMS5003;57669;52.624;-1.688;2022-10-23T10:00:31;2;2;
70255;PMS5003;57669;52.624;-1.688;2022-10-23T10:02:57;2;2;
70255;PMS5003;57669;52.624;-1.688;2022-10-23T10:05:23;4;3;
70255;PMS5003;57669;52.624;-1.688;2022-10-23T10:07:53;3;2;
70255;PMS5003;57669;52.624;-1.688;2022-10-23T10:10:13;2;2;
70255;PMS5003;57669;52.624;-1.688;2022-10-23T10:12:41;2;2;
70255;PMS5003;57669;52.624;-1.688;2022-10-23T10:15:09;4;3;
70255;PMS5003;57669;52.624;-1.688;2022-10-23T10:17:34;2;1;
70255;PMS5003;57669;52.624;-1.688;2022-10-23T10:20:00;3;2;
70255;PMS5003;57669;52.624;-1.688;2022-10-23T10:22:25;3;3;
70255;PMS5003;57669;52.624;-1.688;2022-10-23T10:24:49;4;4;
70255;PMS5003;57669;52.624;-1.688;2022-10-23T10:27:15;4;4;
70255;PMS5003;57669;52.624;-1.688;2022-10-23T10:29:42;2;2;
70255;PMS5003;57669;52.624;-1.688;2022-10-23T10:32:05;3;3;
70255;PMS5003;57669;52.624;-1.688;2022-10-23T10:34:32;3;3;
70255;PMS5003;57669;52.624;-1.688;2022-10-23T10:36:55;3;2;
70255;PMS5003;57669;52.624;-1.688;2022-10-23T10:39:25;2;2;
70255;PMS5003;57669;52.624;-1.688;2022-10-23T10:41:48;4;4;
70255;PMS5003;57669;52.624;-1.688;2022-10-23T10:44:16;2;2;
70255;PMS5003;57669;52.624;-1.688;2022-10-23T10:46:38;3;2;
70255;PMS5003;57669;52.624;-1.688;2022-10-23T10:49:04;3;3;
70255;PMS5003;57669;52.624;-1.688;2022-10-23T10:51:30;3;3;
70255;PMS5003;57669;52.624;-1.688;2022-10-23T10:54:00;3;3;
70255;PMS5003;57669;52.624;-1.688;2022-10-23T10:56:20;4;3;
70255;PMS5003;57669;52.624;-1.688;2022-10-23T10:58:46;3;3;
70255;PMS5003;57669;52.624;-1.688;2022-10-23T11:01:13;3;3;
70255;PMS5003;57669;52.624;-1.688;2022-10-23T11:03:38;4;3;
70255;PMS5003;57669;52.624;-1.688;2022-10-23T11:06:03;4;3;
70255;PMS5003;57669;52.624;-1.688;2022-10-23T11:08:30;3;3;
70255;PMS5003;57669;52.624;-1.688;2022-10-23T11:10:55;5;5;
70255;PMS5003;57669;52.624;-1.688;2022-10-23T11:13:23;3;2;
70255;PMS5003;57669;52.624;-1.688;2022-10-23T11:15:45;4;4;
70255;PMS5003;57669;52.624;-1.688;2022-10-23T11:18:12;3;3;
70255;PMS5003;57669;52.624;-1.688;2022-10-23T11:20:42;3;3;
70255;PMS5003;57669;52.624;-1.688;2022-10-23T11:23:04;2;2;
70255;PMS5003;57669;52.624;-1.688;2022-10-23T11:27:56;2;2;
70255;PMS5003;57669;52.624;-1.688;2022-10-23T11:30:21;2;2;
70255;PMS5003;57669;52.624;-1.688;2022-10-23T11:32:50;3;3;
70255;PMS5003;57669;52.624;-1.688;2022-10-23T11:35:13;3;3;
70255;PMS5003;57669;52.624;-1.688;2022-10-23T11:37:36;2;2;
70255;PMS5003;57669;52.624;-1.688;2022-10-23T11:40:03;2;2;
70255;PMS5003;57669;52.624;-1.688;2022-10-23T11:42:30;3;2;
70255;PMS5003;57669;52.624;-1.688;2022-10-23T11:44:53;4;4;
70255;PMS5003;57669;52.624;-1.688;2022-10-23T11:49:44;3;1;
70255;PMS5003;57669;52.624;-1.688;2022-10-23T11:54:35;3;2;
70255;PMS5003;57669;52.624;-1.688;2022-10-23T11:57:09;3;3;
70255;PMS5003;57669;52.624;-1.688;2022-10-23T11:59:27;3;2;
70255;PMS5003;57669;52.624;-1.688;2022-10-23T12:01:53;3;3;
70255;PMS5003;57669;52.624;-1.688;2022-10-23T12:04:20;4;4;
70255;PMS5003;57669;52.624;-1.688;2022-10-23T12:06:44;6;5;
70255;PMS5003;57669;52.624;-1.688;2022-10-23T12:11:40;3;3;
70255;PMS5003;57669;52.624;-1.688;2022-10-23T12:14:00;3;3;
70255;PMS5003;57669;52.624;-1.688;2022-10-23T12:18:52;2;2;
70255;PMS5003;57669;52.624;-1.688;2022-10-23T12:21:18;3;3;
70255;PMS5003;57669;52.624;-1.688;2022-10-23T12:23:48;4;4;
70255;PMS5003;57669;52.624;-1.688;2022-10-23T12:28:35;5;4;
70255;PMS5003;57669;52.624;-1.688;2022-10-23T12:31:02;4;4;
70255;PMS5003;57669;52.624;-1.688;2022-10-23T12:33:26;3;3;
70255;PMS5003;57669;52.624;-1.688;2022-10-23T12:38:17;3;3;
70255;PMS5003;57669;52.624;-1.688;2022-10-23T12:40:43;4;4;
70255;PMS5003;57669;52.624;-1.688;2022-10-23T12:45:35;3;2;
70255;PMS5003;57669;52.624;-1.688;2022-10-23T12:48:00;2;2;
70255;PMS5003;57669;52.624;-1.688;2022-10-23T12:50:27;2;2;
70255;PMS5003;57669;52.624;-1.688;2022-10-23T12:52:52;1;1;
70255;PMS5003;57669;52.624;-1.688;2022-10-23T12:55:17;2;2;
70255;PMS5003;57669;52.624;-1.688;2022-10-23T12:57:42;1;1;
70255;PMS5003;57669;52.624;-1.688;2022-10-23T13:00:08;0;0;
70255;PMS5003;57669;52.624;-1.688;2022-10-23T13:02:33;2;2;
70255;PMS5003;57669;52.624;-1.688;2022-10-23T13:04:59;1;0;
70255;PMS5003;57669;52.624;-1.688;2022-10-23T13:07:25;1;1;
70255;PMS5003;57669;52.624;-1.688;2022-10-23T13:09:50;1;1;
70255;PMS5003;57669;52.624;-1.688;2022-10-23T13:12:18;0;0;
70255;PMS5003;57669;52.624;-1.688;2022-10-23T13:14:41;1;1;
70255;PMS5003;57669;52.624;-1.688;2022-10-23T13:17:08;1;1;
70255;PMS5003;57669;52.624;-1.688;2022-10-23T13:19:33;1;1;
70255;PMS5003;57669;52.624;-1.688;2022-10-23T13:21:58;1;1;
70255;PMS5003;57669;52.624;-1.688;2022-10-23T13:24:24;1;1;
70255;PMS5003;57669;52.624;-1.688;2022-10-23T13:26:49;1;1;
70255;PMS5003;57669;52.624;-1.688;2022-10-23T13:29:16;1;0;
70255;PMS5003;57669;52.624;-1.688;2022-10-23T13:31:40;0;0;
70255;PMS5003;57669;52.624;-1.688;2022-10-23T13:36:34;1;1;
70255;PMS5003;57669;52.624;-1.688;2022-10-23T13:38:59;1;1;
70255;PMS5003;57669;52.624;-1.688;2022-10-23T13:41:23;2;2;
70255;PMS5003;57669;52.624;-1.688;2022-10-23T13:43:48;0;0;
70255;PMS5003;57669;52.624;-1.688;2022-10-23T13:46:14;2;1;
70255;PMS5003;57669;52.624;-1.688;2022-10-23T13:48:39;1;1;
70255;PMS5003;57669;52.624;-1.688;2022-10-23T13:51:05;1;1;
70255;PMS5003;57669;52.624;-1.688;2022-10-23T13:53:30;0;0;
70255;PMS5003;57669;52.624;-1.688;2022-10-23T13:55:56;1;1;
70255;PMS5003;57669;52.624;-1.688;2022-10-23T13:58:21;1;0;
70255;PMS5003;57669;52.624;-1.688;2022-10-23T14:00:47;1;1;
70255;PMS5003;57669;52.624;-1.688;2022-10-23T14:03:12;0;0;
70255;PMS5003;57669;52.624;-1.688;2022-10-23T14:05:38;0;0;
70255;PMS5003;57669;52.624;-1.688;2022-10-23T14:08:04;1;0;
70255;PMS5003;57669;52.624;-1.688;2022-10-23T14:10:29;1;1;
70255;PMS5003;57669;52.624;-1.688;2022-10-23T14:12:54;0;0;
70255;PMS5003;57669;52.624;-1.688;2022-10-23T14:15:20;1;0;
70255;PMS5003;57669;52.624;-1.688;2022-10-23T14:17:46;1;0;
70255;PMS5003;57669;52.624;-1.688;2022-10-23T14:20:11;1;1;
70255;PMS5003;57669;52.624;-1.688;2022-10-23T14:22:37;1;1;
70255;PMS5003;57669;52.624;-1.688;2022-10-23T14:25:03;0;0;
70255;PMS5003;57669;52.624;-1.688;2022-10-23T14:27:29;0;0;
70255;PMS5003;57669;52.624;-1.688;2022-10-23T14:29:54;0;0;
70255;PMS5003;57669;52.624;-1.688;2022-10-23T14:32:19;2;1;
70255;PMS5003;57669;52.624;-1.688;2022-10-23T14:34:47;1;1;
70255;PMS5003;57669;52.624;-1.688;2022-10-23T14:37:10;0;0;
70255;PMS5003;57669;52.624;-1.688;2022-10-23T14:39:36;1;1;
70255;PMS5003;57669;52.624;-1.688;2022-10-23T14:42:02;0;0;
70255;PMS5003;57669;52.624;-1.688;2022-10-23T14:44:27;1;1;
70255;PMS5003;57669;52.624;-1.688;2022-10-23T14:46:53;1;1;
70255;PMS5003;57669;52.624;-1.688;2022-10-23T14:49:18;0;0;
70255;PMS5003;57669;52.624;-1.688;2022-10-23T14:51:44;1;1;
70255;PMS5003;57669;52.624;-1.688;2022-10-23T14:54:09;1;1;
70255;PMS5003;57669;52.624;-1.688;2022-10-23T14:56:36;0;0;
70255;PMS5003;57669;52.624;-1.688;2022-10-23T14:59:01;3;2;
70255;PMS5003;57669;52.624;-1.688;2022-10-23T15:01:26;0;0;
70255;PMS5003;57669;52.624;-1.688;2022-10-23T15:03:52;0;0;
70255;PMS5003;57669;52.624;-1.688;2022-10-23T15:06:18;1;1;
70255;PMS5003;57669;52.624;-1.688;2022-10-23T15:08:43;1;1;
70255;PMS5003;57669;52.624;-1.688;2022-10-23T15:11:09;1;1;
70255;PMS5003;57669;52.624;-1.688;2022-10-23T15:13:34;2;1;
70255;PMS5003;57669;52.624;-1.688;2022-10-23T15:16:01;1;1;
70255;PMS5003;57669;52.624;-1.688;2022-10-23T15:18:26;1;1;
70255;PMS5003;57669;52.624;-1.688;2022-10-23T15:20:51;1;1;
70255;PMS5003;57669;52.624;-1.688;2022-10-23T15:23:17;2;1;
70255;PMS5003;57669;52.624;-1.688;2022-10-23T15:25:42;0;0;
70255;PMS5003;57669;52.624;-1.688;2022-10-23T15:28:08;4;1;
70255;PMS5003;57669;52.624;-1.688;2022-10-23T15:30:34;1;1;
70255;PMS5003;57669;52.624;-1.688;2022-10-23T15:32:59;0;0;
70255;PMS5003;57669;52.624;-1.688;2022-10-23T15:35:25;1;1;
70255;PMS5003;57669;52.624;-1.688;2022-10-23T15:37:51;1;1;
70255;PMS5003;57669;52.624;-1.688;2022-10-23T15:40:16;1;1;
70255;PMS5003;57669;52.624;-1.688;2022-10-23T15:42:42;1;0;
70255;PMS5003;57669;52.624;-1.688;2022-10-23T15:45:09;1;1;
70255;PMS5003;57669;52.624;-1.688;2022-10-23T15:47:33;1;1;
70255;PMS5003;57669;52.624;-1.688;2022-10-23T15:49:58;1;1;
70255;PMS5003;57669;52.624;-1.688;2022-10-23T15:52:24;2;2;
70255;PMS5003;57669;52.624;-1.688;2022-10-23T15:54:50;1;1;
70255;PMS5003;57669;52.624;-1.688;2022-10-23T15:57:15;1;1;
70255;PMS5003;57669;52.624;-1.688;2022-10-23T15:59:41;1;1;
70255;PMS5003;57669;52.624;-1.688;2022-10-23T16:02:08;1;1;
70255;PMS5003;57669;52.624;-1.688;2022-10-23T16:04:32;1;1;
70255;PMS5003;57669;52.624;-1.688;2022-10-23T16:06:58;2;2;
70255;PMS5003;57669;52.624;-1.688;2022-10-23T16:09:23;4;3;
70255;PMS5003;57669;52.624;-1.688;2022-10-23T16:11:49;1;1;
70255;PMS5003;57669;52.624;-1.688;2022-10-23T16:16:40;2;2;
70255;PMS5003;57669;52.624;-1.688;2022-10-23T16:19:06;2;2;
70255;PMS5003;57669;52.624;-1.688;2022-10-23T16:23:58;4;3;
70255;PMS5003;57669;52.624;-1.688;2022-10-23T16:26:23;3;3;
70255;PMS5003;57669;52.624;-1.688;2022-10-23T16:28:51;2;2;
70255;PMS5003;57669;52.624;-1.688;2022-10-23T16:31:15;3;2;
70255;PMS5003;57669;52.624;-1.688;2022-10-23T16:33:40;3;2;
70255;PMS5003;57669;52.624;-1.688;2022-10-23T16:36:06;4;4;
70255;PMS5003;57669;52.624;-1.688;2022-10-23T16:38:31;17;16;
70255;PMS5003;57669;52.624;-1.688;2022-10-23T16:40:57;6;6;
70255;PMS5003;57669;52.624;-1.688;2022-10-23T16:43:22;3;3;